Huvudsida
METAR-TAF:

METAR-TAF

Flygplatser :

Medan Kuala Namu Airport

Medan, Sumatera Utara, Indonesien

latitud: 03-34N, longitud: 098-41E, höjd: 25 m

Aktuellt väderrapport

Denna rapport gjordes för 32 minuter sedan, klockan 20:00 UTC
Vind 3 kt från väst/sydväst
Temperatur 26°C
Fuktighet 100%
Tryck 1010 hPa
Sikt: 3000 m
Spridda moln på en höjd av 1700 ft
fuktdis,

METAR: WIMM 222000Z 24003KT 3000 BR SCT017 26/26 Q1010 NOSIG

Tid: 03:32 (20:32 UTC)

Väderprognos

Denna rapport gjordes för 3 timmar och 32 minuter sedan, klockan 17:00 UTC
Prognos gäller från 22 kl. 18 UTC till 23 kl. 18 UTC
Vind 3 kt från väst/sydväst
Sikt: 3000 m
Få moln på en höjd av 2000 ft
fuktdis
Blir
från 23 kl. 01 UTC till 23 kl. 03 UTC
Vind 10 kt från nord
Sikt 10 km eller mer
Spridda moln på en höjd av 1800 ft

TAF: WIMM 221700Z 2218/2318 24003KT 3000 BR FEW020 BECMG 2301/2303 36010KT 9999 SCT018

Aktuella väderrapporter och prognoser från 4000 flygplatser (METAR- och TAF-rapporter).

De tillgängliga stationerna syns som gula och röda prickar på kartan.

För musen över prickarna för att se namnen på stationerna.

Klicka sedan för att få väderrapporter och prognoser.

För att ändra kartan: Klicka på de gröna knapparna med ett svart kors på för att zooma in; den gröna knappen med ett streck på för att zooma ut; eller på de gröna pilarna för angränsande kartor.


METAR-TAF: